Nearby METAR Reports

 

NZCH - Christchurch Int, New Zealand
Distance from station: W 10km
Updated: 03 Dec 2022 19:00
Mostly cloudy
Mostly cloudy
 Wind from NE
Wind: NE 20 km/h
Temperature: 14°C
Dew Point: 7°C
Humidity: 63%
Barometer: 1013 hPa
Clouds: Mostly cloudy
Visibility: 10 km
Cloud details: Mostly cloudy 3048 m
2022/12/03 06:00 NZCH 030600Z AUTO 05011KT 9999 BKN100/// 14/07 Q1013 NOSIG